עמוד ראשי
METAR-TAF:

METAR-TAF

שדות תעופה :

Ambato, אקוודור

קו רוחב: 01-12-43S, קו אורך: 078-34-28W, גובה: 2591מטר

תצפית מזג אוויר נוכחית

הדו"ח נערך לפני 1 שעות ו 5דקות, בשעה 14:00 UTC
רוח 2קשר מכיוון דרום
טמפרטורת 14 צלסיוס
לחות 88%
לחץ 1031 hPa
ראות 10 קילומטר או יותר
עננים בינוניים בגובה 2600רגל
עננים בינוניים בגובה 9000רגל

METAR: SEAM 241400Z 18002KT 9999 BKN026 BKN090 14/12 Q1031

זמן: 10:05 (15:05 UTC)


TAF: חסר

תצפיות ותחזיות מזג אוויר לגבי יותר מ- 4,000 שדות תעופה ברחבי העולם. דוחות METAR ו- TAF.

התחנות הזמינות מסומנות בנקודות צהובות ואדומות על גבי המפה.

העבר את העכבר לנקודה הצבעונית על מנת לראות את שם התחנה.

לאחר מכן, לחץ כדי לראות את תוכן ואת תחזיות מזג האוויר.

כדי לשנות את המפה: לחץ על הכפתורים הירוקים עם הפלוס השחור כדי להתקרב; על הכפתור הירוק עם המקף כדי להתרחק; או בחיצים הירוקים למפות סמוכות.


METAR-TAF: